sensor_id;sensor_type;location;lat;lon;timestamp;P1;durP1;ratioP1;P2;durP2;ratioP2
18445;SDS011;9352;50.888;4.466;2022-10-16T00:02:25;1.10;;;1.10;;
18445;SDS011;9352;50.888;4.466;2022-10-16T00:04:52;2.08;;;1.33;;
18445;SDS011;9352;50.888;4.466;2022-10-16T00:07:21;1.27;;;1.20;;
18445;SDS011;9352;50.888;4.466;2022-10-16T00:09:48;1.75;;;1.05;;
18445;SDS011;9352;50.888;4.466;2022-10-16T00:12:15;5.72;;;1.38;;
18445;SDS011;9352;50.888;4.466;2022-10-16T00:14:41;7.55;;;1.60;;
18445;SDS011;9352;50.888;4.466;2022-10-16T00:17:09;1.35;;;1.17;;
18445;SDS011;9352;50.888;4.466;2022-10-16T00:19:35;1.65;;;1.20;;
18445;SDS011;9352;50.888;4.466;2022-10-16T00:22:02;1.77;;;1.20;;
18445;SDS011;9352;50.888;4.466;2022-10-16T00:24:31;1.00;;;1.00;;
18445;SDS011;9352;50.888;4.466;2022-10-16T00:26:58;1.00;;;1.00;;
18445;SDS011;9352;50.888;4.466;2022-10-16T00:29:24;3.72;;;1.20;;
18445;SDS011;9352;50.888;4.466;2022-10-16T00:31:51;2.90;;;1.25;;
18445;SDS011;9352;50.888;4.466;2022-10-16T00:34:18;1.25;;;1.20;;
18445;SDS011;9352;50.888;4.466;2022-10-16T00:36:45;1.48;;;1.38;;
18445;SDS011;9352;50.888;4.466;2022-10-16T00:39:12;2.08;;;1.13;;
18445;SDS011;9352;50.888;4.466;2022-10-16T00:41:41;1.52;;;1.20;;
18445;SDS011;9352;50.888;4.466;2022-10-16T00:47:13;2.17;;;1.52;;
18445;SDS011;9352;50.888;4.466;2022-10-16T00:49:45;1.45;;;1.33;;
18445;SDS011;9352;50.888;4.466;2022-10-16T00:52:13;1.40;;;1.30;;
18445;SDS011;9352;50.888;4.466;2022-10-16T00:54:41;2.45;;;1.40;;
18445;SDS011;9352;50.888;4.466;2022-10-16T00:57:09;1.30;;;1.20;;
18445;SDS011;9352;50.888;4.466;2022-10-16T00:59:37;1.20;;;1.20;;
18445;SDS011;9352;50.888;4.466;2022-10-16T01:02:08;1.23;;;1.23;;
18445;SDS011;9352;50.888;4.466;2022-10-16T01:04:37;4.97;;;1.90;;
18445;SDS011;9352;50.888;4.466;2022-10-16T01:07:09;3.33;;;1.38;;
18445;SDS011;9352;50.888;4.466;2022-10-16T01:09:42;1.17;;;1.10;;
18445;SDS011;9352;50.888;4.466;2022-10-16T01:12:20;2.15;;;1.40;;
18445;SDS011;9352;50.888;4.466;2022-10-16T01:14:59;1.10;;;1.02;;
18445;SDS011;9352;50.888;4.466;2022-10-16T01:17:32;1.45;;;1.30;;
18445;SDS011;9352;50.888;4.466;2022-10-16T01:20:06;3.10;;;1.30;;
18445;SDS011;9352;50.888;4.466;2022-10-16T01:22:39;1.20;;;1.20;;
18445;SDS011;9352;50.888;4.466;2022-10-16T01:25:15;4.22;;;1.33;;
18445;SDS011;9352;50.888;4.466;2022-10-16T01:27:50;1.95;;;1.20;;
18445;SDS011;9352;50.888;4.466;2022-10-16T01:30:20;2.40;;;1.30;;
18445;SDS011;9352;50.888;4.466;2022-10-16T01:32:50;1.48;;;1.38;;
18445;SDS011;9352;50.888;4.466;2022-10-16T01:35:23;1.33;;;1.30;;
18445;SDS011;9352;50.888;4.466;2022-10-16T01:37:53;1.42;;;1.30;;
18445;SDS011;9352;50.888;4.466;2022-10-16T01:40:26;1.20;;;1.20;;
18445;SDS011;9352;50.888;4.466;2022-10-16T01:42:58;5.10;;;1.38;;
18445;SDS011;9352;50.888;4.466;2022-10-16T01:45:28;1.98;;;1.38;;
18445;SDS011;9352;50.888;4.466;2022-10-16T01:47:58;1.40;;;1.33;;
18445;SDS011;9352;50.888;4.466;2022-10-16T01:50:29;1.30;;;1.20;;
18445;SDS011;9352;50.888;4.466;2022-10-16T01:52:59;3.22;;;1.40;;
18445;SDS011;9352;50.888;4.466;2022-10-16T01:55:32;1.50;;;1.40;;
18445;SDS011;9352;50.888;4.466;2022-10-16T01:58:04;1.48;;;1.38;;
18445;SDS011;9352;50.888;4.466;2022-10-16T02:00:33;1.48;;;1.40;;
18445;SDS011;9352;50.888;4.466;2022-10-16T02:03:02;2.10;;;1.83;;
18445;SDS011;9352;50.888;4.466;2022-10-16T02:05:31;3.35;;;1.40;;
18445;SDS011;9352;50.888;4.466;2022-10-16T02:08:03;1.48;;;1.38;;
18445;SDS011;9352;50.888;4.466;2022-10-16T02:10:32;2.40;;;1.98;;
18445;SDS011;9352;50.888;4.466;2022-10-16T02:13:03;2.80;;;1.60;;
18445;SDS011;9352;50.888;4.466;2022-10-16T02:15:35;1.52;;;1.45;;
18445;SDS011;9352;50.888;4.466;2022-10-16T02:18:02;2.03;;;1.40;;
18445;SDS011;9352;50.888;4.466;2022-10-16T02:20:31;5.95;;;1.95;;
18445;SDS011;9352;50.888;4.466;2022-10-16T02:23:02;1.58;;;1.40;;
18445;SDS011;9352;50.888;4.466;2022-10-16T02:25:30;3.15;;;1.30;;
18445;SDS011;9352;50.888;4.466;2022-10-16T02:28:01;2.33;;;1.20;;
18445;SDS011;9352;50.888;4.466;2022-10-16T02:30:35;1.60;;;1.60;;
18445;SDS011;9352;50.888;4.466;2022-10-16T02:33:05;3.47;;;1.70;;
18445;SDS011;9352;50.888;4.466;2022-10-16T02:35:34;2.35;;;1.60;;
18445;SDS011;9352;50.888;4.466;2022-10-16T02:38:03;4.35;;;1.60;;
18445;SDS011;9352;50.888;4.466;2022-10-16T02:40:30;3.60;;;1.50;;
18445;SDS011;9352;50.888;4.466;2022-10-16T02:42:58;1.55;;;1.45;;
18445;SDS011;9352;50.888;4.466;2022-10-16T02:45:26;3.13;;;1.73;;
18445;SDS011;9352;50.888;4.466;2022-10-16T02:47:54;4.38;;;1.65;;
18445;SDS011;9352;50.888;4.466;2022-10-16T02:50:21;4.90;;;1.70;;
18445;SDS011;9352;50.888;4.466;2022-10-16T02:52:49;4.13;;;1.80;;
18445;SDS011;9352;50.888;4.466;2022-10-16T02:55:16;5.25;;;1.92;;
18445;SDS011;9352;50.888;4.466;2022-10-16T02:57:43;1.70;;;1.48;;
18445;SDS011;9352;50.888;4.466;2022-10-16T03:00:12;2.58;;;1.80;;
18445;SDS011;9352;50.888;4.466;2022-10-16T03:02:41;2.78;;;2.28;;
18445;SDS011;9352;50.888;4.466;2022-10-16T03:05:09;7.00;;;2.05;;
18445;SDS011;9352;50.888;4.466;2022-10-16T03:07:36;6.80;;;1.80;;
18445;SDS011;9352;50.888;4.466;2022-10-16T03:10:04;5.82;;;1.90;;
18445;SDS011;9352;50.888;4.466;2022-10-16T03:12:31;5.68;;;1.60;;
18445;SDS011;9352;50.888;4.466;2022-10-16T03:14:58;3.90;;;1.67;;
18445;SDS011;9352;50.888;4.466;2022-10-16T03:17:25;3.20;;;1.80;;
18445;SDS011;9352;50.888;4.466;2022-10-16T03:19:53;3.33;;;1.70;;
18445;SDS011;9352;50.888;4.466;2022-10-16T03:22:20;1.98;;;1.80;;
18445;SDS011;9352;50.888;4.466;2022-10-16T03:24:47;4.57;;;1.65;;
18445;SDS011;9352;50.888;4.466;2022-10-16T03:27:14;2.10;;;1.67;;
18445;SDS011;9352;50.888;4.466;2022-10-16T03:29:41;3.53;;;2.05;;
18445;SDS011;9352;50.888;4.466;2022-10-16T03:32:08;6.38;;;1.60;;
18445;SDS011;9352;50.888;4.466;2022-10-16T03:34:35;3.35;;;2.00;;
18445;SDS011;9352;50.888;4.466;2022-10-16T03:37:03;4.18;;;1.80;;
18445;SDS011;9352;50.888;4.466;2022-10-16T03:39:30;1.92;;;1.83;;
18445;SDS011;9352;50.888;4.466;2022-10-16T03:41:57;2.42;;;1.90;;
18445;SDS011;9352;50.888;4.466;2022-10-16T03:44:24;3.05;;;1.98;;
18445;SDS011;9352;50.888;4.466;2022-10-16T03:46:51;2.83;;;1.90;;
18445;SDS011;9352;50.888;4.466;2022-10-16T03:49:18;2.13;;;1.83;;
18445;SDS011;9352;50.888;4.466;2022-10-16T03:51:45;3.35;;;1.80;;
18445;SDS011;9352;50.888;4.466;2022-10-16T03:54:13;4.65;;;1.85;;
18445;SDS011;9352;50.888;4.466;2022-10-16T03:56:40;3.42;;;1.80;;
18445;SDS011;9352;50.888;4.466;2022-10-16T03:59:06;4.22;;;1.65;;
18445;SDS011;9352;50.888;4.466;2022-10-16T04:01:33;4.05;;;1.77;;
18445;SDS011;9352;50.888;4.466;2022-10-16T04:04:03;4.22;;;2.28;;
18445;SDS011;9352;50.888;4.466;2022-10-16T04:06:30;5.07;;;2.00;;
18445;SDS011;9352;50.888;4.466;2022-10-16T04:08:57;3.85;;;1.90;;
18445;SDS011;9352;50.888;4.466;2022-10-16T04:11:25;2.97;;;2.00;;
18445;SDS011;9352;50.888;4.466;2022-10-16T04:13:52;16.65;;;3.08;;
18445;SDS011;9352;50.888;4.466;2022-10-16T04:16:19;2.08;;;1.80;;
18445;SDS011;9352;50.888;4.466;2022-10-16T04:18:46;6.72;;;2.00;;
18445;SDS011;9352;50.888;4.466;2022-10-16T04:21:12;1.98;;;1.85;;
18445;SDS011;9352;50.888;4.466;2022-10-16T04:23:39;3.40;;;1.80;;
18445;SDS011;9352;50.888;4.466;2022-10-16T04:26:06;2.17;;;1.85;;
18445;SDS011;9352;50.888;4.466;2022-10-16T04:28:34;1.98;;;1.77;;
18445;SDS011;9352;50.888;4.466;2022-10-16T04:31:03;5.32;;;2.28;;
18445;SDS011;9352;50.888;4.466;2022-10-16T04:33:30;11.95;;;2.00;;
18445;SDS011;9352;50.888;4.466;2022-10-16T04:35:57;5.13;;;2.05;;
18445;SDS011;9352;50.888;4.466;2022-10-16T04:38:24;4.60;;;1.80;;
18445;SDS011;9352;50.888;4.466;2022-10-16T04:40:51;2.35;;;2.20;;
18445;SDS011;9352;50.888;4.466;2022-10-16T04:43:19;6.57;;;2.10;;
18445;SDS011;9352;50.888;4.466;2022-10-16T04:45:47;3.95;;;2.10;;
18445;SDS011;9352;50.888;4.466;2022-10-16T04:48:15;6.18;;;2.25;;
18445;SDS011;9352;50.888;4.466;2022-10-16T04:50:42;4.90;;;2.00;;
18445;SDS011;9352;50.888;4.466;2022-10-16T04:53:09;5.75;;;2.15;;
18445;SDS011;9352;50.888;4.466;2022-10-16T04:55:36;6.68;;;2.20;;
18445;SDS011;9352;50.888;4.466;2022-10-16T04:58:03;5.28;;;2.20;;
18445;SDS011;9352;50.888;4.466;2022-10-16T05:00:31;2.65;;;1.80;;
18445;SDS011;9352;50.888;4.466;2022-10-16T05:02:59;4.05;;;1.75;;
18445;SDS011;9352;50.888;4.466;2022-10-16T05:05:32;3.03;;;1.92;;
18445;SDS011;9352;50.888;4.466;2022-10-16T05:07:59;6.50;;;1.80;;
18445;SDS011;9352;50.888;4.466;2022-10-16T05:10:26;4.00;;;2.33;;
18445;SDS011;9352;50.888;4.466;2022-10-16T05:12:55;16.45;;;2.70;;
18445;SDS011;9352;50.888;4.466;2022-10-16T05:15:21;6.47;;;2.08;;
18445;SDS011;9352;50.888;4.466;2022-10-16T05:17:51;8.07;;;2.20;;
18445;SDS011;9352;50.888;4.466;2022-10-16T05:20:20;4.05;;;1.90;;
18445;SDS011;9352;50.888;4.466;2022-10-16T05:22:47;2.55;;;1.90;;
18445;SDS011;9352;50.888;4.466;2022-10-16T05:25:14;3.53;;;1.80;;
18445;SDS011;9352;50.888;4.466;2022-10-16T05:27:41;5.30;;;2.10;;
18445;SDS011;9352;50.888;4.466;2022-10-16T05:30:09;3.33;;;2.17;;
18445;SDS011;9352;50.888;4.466;2022-10-16T05:32:36;5.43;;;2.10;;
18445;SDS011;9352;50.888;4.466;2022-10-16T05:35:03;4.35;;;2.05;;
18445;SDS011;9352;50.888;4.466;2022-10-16T05:37:32;6.10;;;2.97;;
18445;SDS011;9352;50.888;4.466;2022-10-16T05:39:59;4.82;;;2.63;;
18445;SDS011;9352;50.888;4.466;2022-10-16T05:42:26;3.53;;;2.20;;
18445;SDS011;9352;50.888;4.466;2022-10-16T05:44:53;8.43;;;2.72;;
18445;SDS011;9352;50.888;4.466;2022-10-16T05:47:20;6.50;;;2.42;;
18445;SDS011;9352;50.888;4.466;2022-10-16T05:49:47;4.90;;;2.20;;
18445;SDS011;9352;50.888;4.466;2022-10-16T05:52:13;9.98;;;2.55;;
18445;SDS011;9352;50.888;4.466;2022-10-16T05:54:42;3.63;;;2.58;;
18445;SDS011;9352;50.888;4.466;2022-10-16T05:57:08;4.07;;;2.13;;
18445;SDS011;9352;50.888;4.466;2022-10-16T05:59:35;6.55;;;2.40;;
18445;SDS011;9352;50.888;4.466;2022-10-16T06:02:02;3.03;;;2.13;;
18445;SDS011;9352;50.888;4.466;2022-10-16T06:04:30;8.95;;;2.58;;
18445;SDS011;9352;50.888;4.466;2022-10-16T06:06:59;6.68;;;2.50;;
18445;SDS011;9352;50.888;4.466;2022-10-16T06:09:26;12.48;;;2.97;;
18445;SDS011;9352;50.888;4.466;2022-10-16T06:11:55;8.90;;;3.67;;
18445;SDS011;9352;50.888;4.466;2022-10-16T06:14:22;4.68;;;3.42;;
18445;SDS011;9352;50.888;4.466;2022-10-16T06:16:48;5.60;;;3.65;;
18445;SDS011;9352;50.888;4.466;2022-10-16T06:19:15;7.60;;;3.80;;
18445;SDS011;9352;50.888;4.466;2022-10-16T06:21:43;7.93;;;3.88;;
18445;SDS011;9352;50.888;4.466;2022-10-16T06:24:10;5.88;;;3.00;;
18445;SDS011;9352;50.888;4.466;2022-10-16T06:26:37;7.60;;;2.83;;
18445;SDS011;9352;50.888;4.466;2022-10-16T06:29:05;10.57;;;2.60;;
18445;SDS011;9352;50.888;4.466;2022-10-16T06:31:32;9.73;;;3.30;;
18445;SDS011;9352;50.888;4.466;2022-10-16T06:33:59;6.07;;;2.58;;
18445;SDS011;9352;50.888;4.466;2022-10-16T06:36:27;6.82;;;2.70;;
18445;SDS011;9352;50.888;4.466;2022-10-16T06:38:54;8.40;;;2.60;;
18445;SDS011;9352;50.888;4.466;2022-10-16T06:41:21;2.92;;;2.70;;
18445;SDS011;9352;50.888;4.466;2022-10-16T06:43:49;5.45;;;3.00;;
18445;SDS011;9352;50.888;4.466;2022-10-16T06:46:19;12.77;;;3.00;;
18445;SDS011;9352;50.888;4.466;2022-10-16T06:48:47;3.65;;;3.05;;
18445;SDS011;9352;50.888;4.466;2022-10-16T06:51:17;7.82;;;2.85;;
18445;SDS011;9352;50.888;4.466;2022-10-16T06:53:46;5.53;;;2.72;;
18445;SDS011;9352;50.888;4.466;2022-10-16T06:56:14;6.78;;;2.28;;
18445;SDS011;9352;50.888;4.466;2022-10-16T06:58:43;7.95;;;3.08;;
18445;SDS011;9352;50.888;4.466;2022-10-16T07:01:11;4.40;;;2.40;;
18445;SDS011;9352;50.888;4.466;2022-10-16T07:03:41;4.75;;;2.80;;
18445;SDS011;9352;50.888;4.466;2022-10-16T07:06:10;3.15;;;1.83;;
18445;SDS011;9352;50.888;4.466;2022-10-16T07:08:39;3.35;;;2.10;;
18445;SDS011;9352;50.888;4.466;2022-10-16T07:11:08;5.50;;;2.40;;
18445;SDS011;9352;50.888;4.466;2022-10-16T07:13:36;5.50;;;2.92;;
18445;SDS011;9352;50.888;4.466;2022-10-16T07:16:04;2.90;;;2.67;;
18445;SDS011;9352;50.888;4.466;2022-10-16T07:18:31;4.50;;;2.80;;
18445;SDS011;9352;50.888;4.466;2022-10-16T07:21:04;3.00;;;2.00;;
18445;SDS011;9352;50.888;4.466;2022-10-16T07:23:31;6.50;;;2.10;;
18445;SDS011;9352;50.888;4.466;2022-10-16T07:25:58;5.85;;;2.03;;
18445;SDS011;9352;50.888;4.466;2022-10-16T07:28:25;3.20;;;1.90;;
18445;SDS011;9352;50.888;4.466;2022-10-16T07:30:53;5.85;;;2.22;;
18445;SDS011;9352;50.888;4.466;2022-10-16T07:33:20;5.75;;;2.00;;
18445;SDS011;9352;50.888;4.466;2022-10-16T07:35:48;5.70;;;2.17;;
18445;SDS011;9352;50.888;4.466;2022-10-16T07:38:17;4.57;;;1.80;;
18445;SDS011;9352;50.888;4.466;2022-10-16T07:40:44;2.38;;;1.90;;
18445;SDS011;9352;50.888;4.466;2022-10-16T07:43:11;3.60;;;2.00;;
18445;SDS011;9352;50.888;4.466;2022-10-16T07:45:46;5.35;;;2.05;;
18445;SDS011;9352;50.888;4.466;2022-10-16T07:48:14;8.20;;;2.08;;
18445;SDS011;9352;50.888;4.466;2022-10-16T07:50:41;4.38;;;2.00;;
18445;SDS011;9352;50.888;4.466;2022-10-16T07:53:08;5.88;;;2.20;;
18445;SDS011;9352;50.888;4.466;2022-10-16T07:55:37;6.70;;;2.05;;
18445;SDS011;9352;50.888;4.466;2022-10-16T07:58:04;4.70;;;2.08;;
18445;SDS011;9352;50.888;4.466;2022-10-16T08:00:32;5.63;;;1.90;;
18445;SDS011;9352;50.888;4.466;2022-10-16T08:02:59;2.42;;;1.60;;
18445;SDS011;9352;50.888;4.466;2022-10-16T08:05:26;6.78;;;1.70;;
18445;SDS011;9352;50.888;4.466;2022-10-16T08:07:53;1.70;;;1.60;;
18445;SDS011;9352;50.888;4.466;2022-10-16T08:10:21;6.22;;;2.00;;
18445;SDS011;9352;50.888;4.466;2022-10-16T08:12:51;3.22;;;1.42;;
18445;SDS011;9352;50.888;4.466;2022-10-16T08:15:18;3.70;;;1.60;;
18445;SDS011;9352;50.888;4.466;2022-10-16T08:17:53;5.22;;;1.80;;
18445;SDS011;9352;50.888;4.466;2022-10-16T08:20:21;1.60;;;1.50;;
18445;SDS011;9352;50.888;4.466;2022-10-16T08:22:47;4.82;;;1.80;;
18445;SDS011;9352;50.888;4.466;2022-10-16T08:25:15;7.18;;;1.90;;
18445;SDS011;9352;50.888;4.466;2022-10-16T08:27:41;10.32;;;1.67;;
18445;SDS011;9352;50.888;4.466;2022-10-16T08:30:11;1.98;;;1.75;;
18445;SDS011;9352;50.888;4.466;2022-10-16T08:32:38;3.92;;;1.77;;
18445;SDS011;9352;50.888;4.466;2022-10-16T08:35:06;9.30;;;1.88;;
18445;SDS011;9352;50.888;4.466;2022-10-16T08:37:34;3.28;;;1.50;;
18445;SDS011;9352;50.888;4.466;2022-10-16T08:40:01;4.78;;;1.95;;
18445;SDS011;9352;50.888;4.466;2022-10-16T08:42:30;9.98;;;1.75;;
18445;SDS011;9352;50.888;4.466;2022-10-16T08:45:24;5.60;;;1.70;;
18445;SDS011;9352;50.888;4.466;2022-10-16T08:48:00;9.48;;;1.80;;
18445;SDS011;9352;50.888;4.466;2022-10-16T08:50:36;4.15;;;1.60;;
18445;SDS011;9352;50.888;4.466;2022-10-16T08:53:04;4.00;;;1.70;;
18445;SDS011;9352;50.888;4.466;2022-10-16T08:55:33;7.90;;;2.30;;
18445;SDS011;9352;50.888;4.466;2022-10-16T08:58:10;5.07;;;1.90;;
18445;SDS011;9352;50.888;4.466;2022-10-16T09:00:40;5.68;;;1.55;;
18445;SDS011;9352;50.888;4.466;2022-10-16T09:03:11;6.75;;;1.85;;
18445;SDS011;9352;50.888;4.466;2022-10-16T09:05:48;3.95;;;1.50;;
18445;SDS011;9352;50.888;4.466;2022-10-16T09:08:34;4.70;;;1.50;;
18445;SDS011;9352;50.888;4.466;2022-10-16T09:11:10;4.30;;;1.67;;
18445;SDS011;9352;50.888;4.466;2022-10-16T09:13:44;4.93;;;1.42;;
18445;SDS011;9352;50.888;4.466;2022-10-16T09:16:19;6.97;;;2.00;;
18445;SDS011;9352;50.888;4.466;2022-10-16T09:18:52;8.48;;;1.90;;
18445;SDS011;9352;50.888;4.466;2022-10-16T09:21:25;4.25;;;1.48;;
18445;SDS011;9352;50.888;4.466;2022-10-16T09:23:57;5.88;;;1.80;;
18445;SDS011;9352;50.888;4.466;2022-10-16T09:26:26;8.02;;;1.77;;
18445;SDS011;9352;50.888;4.466;2022-10-16T09:28:53;6.90;;;1.63;;
18445;SDS011;9352;50.888;4.466;2022-10-16T09:31:21;3.92;;;1.77;;
18445;SDS011;9352;50.888;4.466;2022-10-16T09:33:50;5.45;;;1.65;;
18445;SDS011;9352;50.888;4.466;2022-10-16T09:36:21;6.32;;;1.77;;
18445;SDS011;9352;50.888;4.466;2022-10-16T09:39:00;6.13;;;1.85;;
18445;SDS011;9352;50.888;4.466;2022-10-16T09:41:29;2.60;;;1.67;;
18445;SDS011;9352;50.888;4.466;2022-10-16T09:43:57;11.30;;;1.60;;
18445;SDS011;9352;50.888;4.466;2022-10-16T09:46:28;3.42;;;1.50;;
18445;SDS011;9352;50.888;4.466;2022-10-16T09:48:57;8.40;;;1.52;;
18445;SDS011;9352;50.888;4.466;2022-10-16T09:51:26;5.38;;;1.52;;
18445;SDS011;9352;50.888;4.466;2022-10-16T09:53:58;5.30;;;1.80;;
18445;SDS011;9352;50.888;4.466;2022-10-16T09:56:26;4.25;;;1.88;;
18445;SDS011;9352;50.888;4.466;2022-10-16T09:58:55;5.45;;;1.50;;
18445;SDS011;9352;50.888;4.466;2022-10-16T10:01:24;7.30;;;1.80;;
18445;SDS011;9352;50.888;4.466;2022-10-16T10:03:58;5.55;;;1.67;;
18445;SDS011;9352;50.888;4.466;2022-10-16T10:06:27;9.65;;;3.33;;
18445;SDS011;9352;50.888;4.466;2022-10-16T10:08:56;10.05;;;2.13;;
18445;SDS011;9352;50.888;4.466;2022-10-16T10:11:42;6.53;;;1.92;;
18445;SDS011;9352;50.888;4.466;2022-10-16T10:14:18;2.28;;;1.50;;
18445;SDS011;9352;50.888;4.466;2022-10-16T10:16:50;7.68;;;2.00;;
18445;SDS011;9352;50.888;4.466;2022-10-16T10:19:18;7.10;;;1.63;;
18445;SDS011;9352;50.888;4.466;2022-10-16T10:21:47;4.68;;;1.88;;
18445;SDS011;9352;50.888;4.466;2022-10-16T10:24:16;8.45;;;1.60;;
18445;SDS011;9352;50.888;4.466;2022-10-16T10:26:47;9.75;;;1.75;;
18445;SDS011;9352;50.888;4.466;2022-10-16T10:29:20;6.78;;;1.70;;
18445;SDS011;9352;50.888;4.466;2022-10-16T10:32:09;6.30;;;1.83;;
18445;SDS011;9352;50.888;4.466;2022-10-16T10:34:47;3.45;;;1.40;;
18445;SDS011;9352;50.888;4.466;2022-10-16T10:40:15;3.50;;;1.52;;
18445;SDS011;9352;50.888;4.466;2022-10-16T10:42:51;3.10;;;1.38;;
18445;SDS011;9352;50.888;4.466;2022-10-16T10:45:25;7.80;;;1.58;;
18445;SDS011;9352;50.888;4.466;2022-10-16T10:47:58;8.00;;;1.38;;
18445;SDS011;9352;50.888;4.466;2022-10-16T10:50:33;4.32;;;1.45;;
18445;SDS011;9352;50.888;4.466;2022-10-16T10:53:10;4.63;;;1.50;;
18445;SDS011;9352;50.888;4.466;2022-10-16T10:55:45;6.22;;;1.50;;
18445;SDS011;9352;50.888;4.466;2022-10-16T10:58:32;7.18;;;1.75;;
18445;SDS011;9352;50.888;4.466;2022-10-16T11:01:10;3.78;;;1.50;;
18445;SDS011;9352;50.888;4.466;2022-10-16T11:03:46;4.20;;;1.50;;
18445;SDS011;9352;50.888;4.466;2022-10-16T11:06:35;3.97;;;1.30;;
18445;SDS011;9352;50.888;4.466;2022-10-16T11:09:07;8.07;;;1.50;;
18445;SDS011;9352;50.888;4.466;2022-10-16T11:11:40;7.22;;;1.77;;
18445;SDS011;9352;50.888;4.466;2022-10-16T11:14:12;4.13;;;1.55;;
18445;SDS011;9352;50.888;4.466;2022-10-16T11:16:44;6.75;;;1.60;;
18445;SDS011;9352;50.888;4.466;2022-10-16T11:19:22;6.57;;;1.70;;
18445;SDS011;9352;50.888;4.466;2022-10-16T11:22:00;3.28;;;1.38;;
18445;SDS011;9352;50.888;4.466;2022-10-16T11:24:33;3.15;;;1.10;;
18445;SDS011;9352;50.888;4.466;2022-10-16T11:27:04;6.38;;;1.50;;
18445;SDS011;9352;50.888;4.466;2022-10-16T11:29:35;2.10;;;1.13;;
18445;SDS011;9352;50.888;4.466;2022-10-16T11:34:55;2.42;;;1.52;;
18445;SDS011;9352;50.888;4.466;2022-10-16T11:37:27;5.55;;;1.45;;
18445;SDS011;9352;50.888;4.466;2022-10-16T11:40:02;3.90;;;1.58;;
18445;SDS011;9352;50.888;4.466;2022-10-16T11:42:41;2.88;;;1.30;;
18445;SDS011;9352;50.888;4.466;2022-10-16T11:45:17;1.85;;;1.38;;
18445;SDS011;9352;50.888;4.466;2022-10-16T11:47:54;1.58;;;1.00;;
18445;SDS011;9352;50.888;4.466;2022-10-16T11:50:31;6.38;;;1.40;;
18445;SDS011;9352;50.888;4.466;2022-10-16T11:53:03;3.45;;;1.52;;
18445;SDS011;9352;50.888;4.466;2022-10-16T11:55:36;2.95;;;1.40;;
18445;SDS011;9352;50.888;4.466;2022-10-16T11:58:07;4.28;;;1.60;;
18445;SDS011;9352;50.888;4.466;2022-10-16T12:00:41;4.80;;;1.80;;
18445;SDS011;9352;50.888;4.466;2022-10-16T12:03:15;4.32;;;1.30;;
18445;SDS011;9352;50.888;4.466;2022-10-16T12:05:52;3.00;;;1.10;;
18445;SDS011;9352;50.888;4.466;2022-10-16T12:08:28;2.20;;;1.23;;
18445;SDS011;9352;50.888;4.466;2022-10-16T12:11:06;12.50;;;2.00;;
18445;SDS011;9352;50.888;4.466;2022-10-16T12:13:34;3.17;;;1.45;;
18445;SDS011;9352;50.888;4.466;2022-10-16T12:16:06;4.00;;;1.40;;
18445;SDS011;9352;50.888;4.466;2022-10-16T12:18:46;5.22;;;1.20;;
18445;SDS011;9352;50.888;4.466;2022-10-16T12:21:16;4.78;;;1.15;;
18445;SDS011;9352;50.888;4.466;2022-10-16T12:23:47;4.32;;;1.70;;
18445;SDS011;9352;50.888;4.466;2022-10-16T12:26:23;4.55;;;1.58;;
18445;SDS011;9352;50.888;4.466;2022-10-16T12:28:51;3.22;;;1.42;;
18445;SDS011;9352;50.888;4.466;2022-10-16T12:31:18;2.90;;;1.30;;
18445;SDS011;9352;50.888;4.466;2022-10-16T12:33:52;3.78;;;1.10;;
18445;SDS011;9352;50.888;4.466;2022-10-16T12:36:28;3.50;;;1.52;;
18445;SDS011;9352;50.888;4.466;2022-10-16T12:38:57;2.53;;;1.30;;
18445;SDS011;9352;50.888;4.466;2022-10-16T12:41:25;3.13;;;1.40;;
18445;SDS011;9352;50.888;4.466;2022-10-16T12:43:53;4.38;;;1.08;;
18445;SDS011;9352;50.888;4.466;2022-10-16T12:46:22;5.57;;;1.30;;
18445;SDS011;9352;50.888;4.466;2022-10-16T12:49:04;1.15;;;1.00;;
18445;SDS011;9352;50.888;4.466;2022-10-16T12:51:35;4.72;;;1.13;;
18445;SDS011;9352;50.888;4.466;2022-10-16T12:54:04;3.45;;;1.25;;
18445;SDS011;9352;50.888;4.466;2022-10-16T12:56:41;2.17;;;1.13;;
18445;SDS011;9352;50.888;4.466;2022-10-16T12:59:19;8.50;;;1.23;;
18445;SDS011;9352;50.888;4.466;2022-10-16T13:01:58;1.58;;;1.02;;
18445;SDS011;9352;50.888;4.466;2022-10-16T13:04:40;2.60;;;1.30;;
18445;SDS011;9352;50.888;4.466;2022-10-16T13:07:32;1.38;;;1.25;;
18445;SDS011;9352;50.888;4.466;2022-10-16T13:10:11;3.20;;;1.15;;
18445;SDS011;9352;50.888;4.466;2022-10-16T13:15:54;2.63;;;1.25;;
18445;SDS011;9352;50.888;4.466;2022-10-16T13:18:32;2.35;;;1.00;;
18445;SDS011;9352;50.888;4.466;2022-10-16T13:21:14;4.55;;;1.63;;
18445;SDS011;9352;50.888;4.466;2022-10-16T13:23:54;5.28;;;1.63;;
18445;SDS011;9352;50.888;4.466;2022-10-16T13:26:31;3.30;;;1.42;;
18445;SDS011;9352;50.888;4.466;2022-10-16T13:29:07;4.55;;;1.40;;
18445;SDS011;9352;50.888;4.466;2022-10-16T13:31:36;3.72;;;1.63;;
18445;SDS011;9352;50.888;4.466;2022-10-16T13:34:05;3.30;;;1.15;;
18445;SDS011;9352;50.888;4.466;2022-10-16T13:36:42;1.30;;;1.20;;
18445;SDS011;9352;50.888;4.466;2022-10-16T13:39:13;7.63;;;1.52;;
18445;SDS011;9352;50.888;4.466;2022-10-16T13:41:42;4.22;;;1.50;;
18445;SDS011;9352;50.888;4.466;2022-10-16T13:44:13;1.45;;;1.35;;
18445;SDS011;9352;50.888;4.466;2022-10-16T13:46:43;3.67;;;1.40;;
18445;SDS011;9352;50.888;4.466;2022-10-16T13:49:13;2.55;;;1.20;;
18445;SDS011;9352;50.888;4.466;2022-10-16T13:51:41;5.82;;;1.90;;
18445;SDS011;9352;50.888;4.466;2022-10-16T13:54:21;4.72;;;1.77;;
18445;SDS011;9352;50.888;4.466;2022-10-16T13:56:48;4.07;;;1.40;;
18445;SDS011;9352;50.888;4.466;2022-10-16T13:59:23;6.65;;;1.65;;
18445;SDS011;9352;50.888;4.466;2022-10-16T14:01:51;6.68;;;1.50;;
18445;SDS011;9352;50.888;4.466;2022-10-16T14:04:20;5.03;;;1.30;;
18445;SDS011;9352;50.888;4.466;2022-10-16T14:06:49;4.10;;;1.30;;
18445;SDS011;9352;50.888;4.466;2022-10-16T14:09:21;7.97;;;1.45;;
18445;SDS011;9352;50.888;4.466;2022-10-16T14:11:51;5.25;;;1.60;;
18445;SDS011;9352;50.888;4.466;2022-10-16T14:14:21;1.48;;;1.38;;
18445;SDS011;9352;50.888;4.466;2022-10-16T14:16:49;2.47;;;1.60;;
18445;SDS011;9352;50.888;4.466;2022-10-16T14:19:18;2.92;;;1.35;;
18445;SDS011;9352;50.888;4.466;2022-10-16T14:21:48;6.10;;;1.63;;
18445;SDS011;9352;50.888;4.466;2022-10-16T14:24:24;4.07;;;1.60;;
18445;SDS011;9352;50.888;4.466;2022-10-16T14:26:53;5.25;;;1.67;;
18445;SDS011;9352;50.888;4.466;2022-10-16T14:29:22;5.32;;;1.60;;
18445;SDS011;9352;50.888;4.466;2022-10-16T14:31:55;5.25;;;1.67;;
18445;SDS011;9352;50.888;4.466;2022-10-16T14:34:25;3.53;;;1.80;;
18445;SDS011;9352;50.888;4.466;2022-10-16T14:36:54;4.78;;;1.92;;
18445;SDS011;9352;50.888;4.466;2022-10-16T14:39:22;2.50;;;1.88;;
18445;SDS011;9352;50.888;4.466;2022-10-16T14:41:52;9.68;;;1.90;;
18445;SDS011;9352;50.888;4.466;2022-10-16T14:44:26;6.05;;;1.90;;
18445;SDS011;9352;50.888;4.466;2022-10-16T14:46:55;2.10;;;1.90;;
18445;SDS011;9352;50.888;4.466;2022-10-16T14:49:24;3.80;;;2.00;;
18445;SDS011;9352;50.888;4.466;2022-10-16T14:51:53;5.15;;;2.00;;
18445;SDS011;9352;50.888;4.466;2022-10-16T14:54:20;3.80;;;1.83;;
18445;SDS011;9352;50.888;4.466;2022-10-16T14:56:49;5.10;;;1.95;;
18445;SDS011;9352;50.888;4.466;2022-10-16T14:59:19;4.05;;;2.13;;
18445;SDS011;9352;50.888;4.466;2022-10-16T15:01:49;7.53;;;1.85;;
18445;SDS011;9352;50.888;4.466;2022-10-16T15:04:16;6.82;;;2.35;;
18445;SDS011;9352;50.888;4.466;2022-10-16T15:06:43;4.10;;;2.08;;
18445;SDS011;9352;50.888;4.466;2022-10-16T15:09:10;8.05;;;2.22;;
18445;SDS011;9352;50.888;4.466;2022-10-16T15:11:37;8.65;;;2.38;;
18445;SDS011;9352;50.888;4.466;2022-10-16T15:14:08;6.00;;;2.38;;
18445;SDS011;9352;50.888;4.466;2022-10-16T15:16:37;7.57;;;2.10;;
18445;SDS011;9352;50.888;4.466;2022-10-16T15:19:04;5.40;;;2.42;;
18445;SDS011;9352;50.888;4.466;2022-10-16T15:21:31;3.65;;;2.08;;
18445;SDS011;9352;50.888;4.466;2022-10-16T15:23:59;3.10;;;1.80;;
18445;SDS011;9352;50.888;4.466;2022-10-16T15:26:27;7.20;;;2.17;;
18445;SDS011;9352;50.888;4.466;2022-10-16T15:28:55;4.43;;;1.95;;
18445;SDS011;9352;50.888;4.466;2022-10-16T15:31:24;4.68;;;2.10;;